sensor_id;sensor_type;location;lat;lon;timestamp;P1;durP1;ratioP1;P2;durP2;ratioP2
63286;SDS011;49410;55.708;37.522;2022-07-24T00:01:30;22.33;;;10.40;;
63286;SDS011;49410;55.708;37.522;2022-07-24T00:03:56;21.80;;;9.95;;
63286;SDS011;49410;55.708;37.522;2022-07-24T00:06:21;21.08;;;10.32;;
63286;SDS011;49410;55.708;37.522;2022-07-24T00:08:47;19.83;;;9.13;;
63286;SDS011;49410;55.708;37.522;2022-07-24T00:11:13;19.15;;;9.38;;
63286;SDS011;49410;55.708;37.522;2022-07-24T00:13:39;19.98;;;9.38;;
63286;SDS011;49410;55.708;37.522;2022-07-24T00:16:06;20.23;;;9.55;;
63286;SDS011;49410;55.708;37.522;2022-07-24T00:18:32;21.02;;;9.40;;
63286;SDS011;49410;55.708;37.522;2022-07-24T00:20:58;20.17;;;10.07;;
63286;SDS011;49410;55.708;37.522;2022-07-24T00:23:23;23.13;;;10.05;;
63286;SDS011;49410;55.708;37.522;2022-07-24T00:25:50;17.67;;;9.98;;
63286;SDS011;49410;55.708;37.522;2022-07-24T00:28:16;20.30;;;9.43;;
63286;SDS011;49410;55.708;37.522;2022-07-24T00:30:41;19.73;;;10.10;;
63286;SDS011;49410;55.708;37.522;2022-07-24T00:33:07;20.83;;;9.82;;
63286;SDS011;49410;55.708;37.522;2022-07-24T00:35:33;19.58;;;9.82;;
63286;SDS011;49410;55.708;37.522;2022-07-24T00:37:59;17.90;;;9.77;;
63286;SDS011;49410;55.708;37.522;2022-07-24T00:40:25;18.95;;;10.60;;
63286;SDS011;49410;55.708;37.522;2022-07-24T00:42:51;16.48;;;9.13;;
63286;SDS011;49410;55.708;37.522;2022-07-24T00:45:17;16.90;;;9.50;;
63286;SDS011;49410;55.708;37.522;2022-07-24T00:47:43;18.42;;;9.88;;
63286;SDS011;49410;55.708;37.522;2022-07-24T00:50:09;19.42;;;10.15;;
63286;SDS011;49410;55.708;37.522;2022-07-24T00:52:35;26.52;;;10.05;;
63286;SDS011;49410;55.708;37.522;2022-07-24T00:55:00;19.83;;;9.25;;
63286;SDS011;49410;55.708;37.522;2022-07-24T00:57:26;18.02;;;8.85;;
63286;SDS011;49410;55.708;37.522;2022-07-24T00:59:52;15.93;;;9.10;;
63286;SDS011;49410;55.708;37.522;2022-07-24T01:02:17;17.00;;;9.38;;
63286;SDS011;49410;55.708;37.522;2022-07-24T01:04:43;17.67;;;9.10;;
63286;SDS011;49410;55.708;37.522;2022-07-24T01:07:09;20.15;;;9.20;;
63286;SDS011;49410;55.708;37.522;2022-07-24T01:09:34;18.10;;;9.20;;
63286;SDS011;49410;55.708;37.522;2022-07-24T01:12:02;15.15;;;8.77;;
63286;SDS011;49410;55.708;37.522;2022-07-24T01:14:28;15.68;;;8.68;;
63286;SDS011;49410;55.708;37.522;2022-07-24T01:16:57;18.10;;;9.02;;
63286;SDS011;49410;55.708;37.522;2022-07-24T01:19:22;16.80;;;8.70;;
63286;SDS011;49410;55.708;37.522;2022-07-24T01:21:49;16.50;;;8.13;;
63286;SDS011;49410;55.708;37.522;2022-07-24T01:24:16;19.65;;;8.05;;
63286;SDS011;49410;55.708;37.522;2022-07-24T01:26:42;16.58;;;9.05;;
63286;SDS011;49410;55.708;37.522;2022-07-24T01:29:08;15.25;;;7.82;;
63286;SDS011;49410;55.708;37.522;2022-07-24T01:31:33;14.27;;;8.05;;
63286;SDS011;49410;55.708;37.522;2022-07-24T01:33:59;15.40;;;7.80;;
63286;SDS011;49410;55.708;37.522;2022-07-24T01:36:24;14.18;;;7.80;;
63286;SDS011;49410;55.708;37.522;2022-07-24T01:38:50;16.83;;;7.95;;
63286;SDS011;49410;55.708;37.522;2022-07-24T01:41:16;16.00;;;7.95;;
63286;SDS011;49410;55.708;37.522;2022-07-24T01:43:41;13.27;;;7.68;;
63286;SDS011;49410;55.708;37.522;2022-07-24T01:46:07;16.02;;;8.20;;
63286;SDS011;49410;55.708;37.522;2022-07-24T01:48:32;14.75;;;7.80;;
63286;SDS011;49410;55.708;37.522;2022-07-24T01:50:58;14.02;;;7.80;;
63286;SDS011;49410;55.708;37.522;2022-07-24T01:53:24;11.73;;;7.57;;
63286;SDS011;49410;55.708;37.522;2022-07-24T01:55:50;15.38;;;8.40;;
63286;SDS011;49410;55.708;37.522;2022-07-24T01:58:16;14.73;;;7.97;;
63286;SDS011;49410;55.708;37.522;2022-07-24T02:00:42;14.10;;;8.38;;
63286;SDS011;49410;55.708;37.522;2022-07-24T02:03:08;16.88;;;7.57;;
63286;SDS011;49410;55.708;37.522;2022-07-24T02:05:33;14.63;;;7.75;;
63286;SDS011;49410;55.708;37.522;2022-07-24T02:07:59;15.15;;;7.28;;
63286;SDS011;49410;55.708;37.522;2022-07-24T02:10:26;15.00;;;7.78;;
63286;SDS011;49410;55.708;37.522;2022-07-24T02:12:52;13.90;;;8.18;;
63286;SDS011;49410;55.708;37.522;2022-07-24T02:15:18;13.45;;;7.50;;
63286;SDS011;49410;55.708;37.522;2022-07-24T02:17:45;13.15;;;7.72;;
63286;SDS011;49410;55.708;37.522;2022-07-24T02:20:12;15.20;;;7.53;;
63286;SDS011;49410;55.708;37.522;2022-07-24T02:22:37;12.65;;;7.03;;
63286;SDS011;49410;55.708;37.522;2022-07-24T02:25:03;11.77;;;7.03;;
63286;SDS011;49410;55.708;37.522;2022-07-24T02:27:29;12.45;;;7.13;;
63286;SDS011;49410;55.708;37.522;2022-07-24T02:29:54;14.45;;;6.85;;
63286;SDS011;49410;55.708;37.522;2022-07-24T02:32:20;13.98;;;7.05;;
63286;SDS011;49410;55.708;37.522;2022-07-24T02:34:45;12.68;;;7.10;;
63286;SDS011;49410;55.708;37.522;2022-07-24T02:37:10;11.27;;;7.18;;
63286;SDS011;49410;55.708;37.522;2022-07-24T02:39:36;13.30;;;7.68;;
63286;SDS011;49410;55.708;37.522;2022-07-24T02:42:02;11.80;;;7.07;;
63286;SDS011;49410;55.708;37.522;2022-07-24T02:44:27;11.27;;;6.50;;
63286;SDS011;49410;55.708;37.522;2022-07-24T02:46:53;9.13;;;6.00;;
63286;SDS011;49410;55.708;37.522;2022-07-24T02:49:18;10.27;;;6.43;;
63286;SDS011;49410;55.708;37.522;2022-07-24T02:51:44;11.32;;;6.63;;
63286;SDS011;49410;55.708;37.522;2022-07-24T02:54:09;10.63;;;6.47;;
63286;SDS011;49410;55.708;37.522;2022-07-24T02:56:35;11.43;;;6.32;;
63286;SDS011;49410;55.708;37.522;2022-07-24T02:59:00;11.57;;;6.40;;
63286;SDS011;49410;55.708;37.522;2022-07-24T03:01:26;12.52;;;6.65;;
63286;SDS011;49410;55.708;37.522;2022-07-24T03:03:51;10.35;;;6.15;;
63286;SDS011;49410;55.708;37.522;2022-07-24T03:06:17;12.00;;;7.32;;
63286;SDS011;49410;55.708;37.522;2022-07-24T03:08:42;10.23;;;6.07;;
63286;SDS011;49410;55.708;37.522;2022-07-24T03:11:08;11.23;;;5.90;;
63286;SDS011;49410;55.708;37.522;2022-07-24T03:13:33;12.75;;;6.68;;
63286;SDS011;49410;55.708;37.522;2022-07-24T03:15:59;9.85;;;6.13;;
63286;SDS011;49410;55.708;37.522;2022-07-24T03:18:24;10.30;;;5.85;;
63286;SDS011;49410;55.708;37.522;2022-07-24T03:20:50;12.50;;;6.35;;
63286;SDS011;49410;55.708;37.522;2022-07-24T03:23:15;9.98;;;6.15;;
63286;SDS011;49410;55.708;37.522;2022-07-24T03:25:41;11.45;;;6.10;;
63286;SDS011;49410;55.708;37.522;2022-07-24T03:28:06;8.98;;;6.13;;
63286;SDS011;49410;55.708;37.522;2022-07-24T03:30:32;8.98;;;5.82;;
63286;SDS011;49410;55.708;37.522;2022-07-24T03:32:57;9.10;;;5.68;;
63286;SDS011;49410;55.708;37.522;2022-07-24T03:35:22;9.30;;;5.60;;
63286;SDS011;49410;55.708;37.522;2022-07-24T03:37:48;9.05;;;5.50;;
63286;SDS011;49410;55.708;37.522;2022-07-24T03:40:13;8.82;;;5.18;;
63286;SDS011;49410;55.708;37.522;2022-07-24T03:42:39;8.07;;;4.90;;
63286;SDS011;49410;55.708;37.522;2022-07-24T03:45:04;9.15;;;5.13;;
63286;SDS011;49410;55.708;37.522;2022-07-24T03:47:30;10.13;;;5.55;;
63286;SDS011;49410;55.708;37.522;2022-07-24T03:49:56;8.13;;;4.97;;
63286;SDS011;49410;55.708;37.522;2022-07-24T03:52:22;9.98;;;5.47;;
63286;SDS011;49410;55.708;37.522;2022-07-24T03:54:47;10.32;;;5.68;;
63286;SDS011;49410;55.708;37.522;2022-07-24T03:57:12;11.13;;;5.70;;
63286;SDS011;49410;55.708;37.522;2022-07-24T03:59:38;8.90;;;5.43;;
63286;SDS011;49410;55.708;37.522;2022-07-24T04:02:03;9.25;;;5.35;;
63286;SDS011;49410;55.708;37.522;2022-07-24T04:04:29;9.80;;;5.05;;
63286;SDS011;49410;55.708;37.522;2022-07-24T04:06:54;7.95;;;4.80;;
63286;SDS011;49410;55.708;37.522;2022-07-24T04:09:19;9.60;;;5.15;;
63286;SDS011;49410;55.708;37.522;2022-07-24T04:11:45;9.30;;;4.90;;
63286;SDS011;49410;55.708;37.522;2022-07-24T04:14:11;8.15;;;4.78;;
63286;SDS011;49410;55.708;37.522;2022-07-24T04:16:37;10.68;;;5.18;;
63286;SDS011;49410;55.708;37.522;2022-07-24T04:19:02;10.93;;;5.15;;
63286;SDS011;49410;55.708;37.522;2022-07-24T04:21:28;7.63;;;5.00;;
63286;SDS011;49410;55.708;37.522;2022-07-24T04:23:54;10.13;;;5.18;;
63286;SDS011;49410;55.708;37.522;2022-07-24T04:26:19;9.07;;;5.05;;
63286;SDS011;49410;55.708;37.522;2022-07-24T04:28:45;9.02;;;4.95;;
63286;SDS011;49410;55.708;37.522;2022-07-24T04:31:10;7.80;;;4.60;;
63286;SDS011;49410;55.708;37.522;2022-07-24T04:33:36;8.88;;;4.53;;
63286;SDS011;49410;55.708;37.522;2022-07-24T04:36:02;9.07;;;4.30;;
63286;SDS011;49410;55.708;37.522;2022-07-24T04:38:28;10.93;;;4.85;;
63286;SDS011;49410;55.708;37.522;2022-07-24T04:40:53;7.68;;;5.20;;
63286;SDS011;49410;55.708;37.522;2022-07-24T04:43:18;10.60;;;4.38;;
63286;SDS011;49410;55.708;37.522;2022-07-24T04:45:44;9.50;;;4.70;;
63286;SDS011;49410;55.708;37.522;2022-07-24T04:48:09;10.75;;;4.93;;
63286;SDS011;49410;55.708;37.522;2022-07-24T04:50:34;9.25;;;5.00;;
63286;SDS011;49410;55.708;37.522;2022-07-24T04:53:00;11.30;;;5.32;;
63286;SDS011;49410;55.708;37.522;2022-07-24T04:55:26;9.13;;;4.93;;
63286;SDS011;49410;55.708;37.522;2022-07-24T04:57:51;9.52;;;4.65;;
63286;SDS011;49410;55.708;37.522;2022-07-24T05:00:16;10.35;;;4.65;;
63286;SDS011;49410;55.708;37.522;2022-07-24T05:02:42;8.57;;;4.72;;
63286;SDS011;49410;55.708;37.522;2022-07-24T05:05:07;9.65;;;4.38;;
63286;SDS011;49410;55.708;37.522;2022-07-24T05:07:33;9.90;;;4.90;;
63286;SDS011;49410;55.708;37.522;2022-07-24T05:09:58;10.02;;;4.50;;
63286;SDS011;49410;55.708;37.522;2022-07-24T05:12:24;12.20;;;4.47;;
63286;SDS011;49410;55.708;37.522;2022-07-24T05:14:50;12.30;;;4.75;;
63286;SDS011;49410;55.708;37.522;2022-07-24T05:17:16;12.35;;;5.03;;
63286;SDS011;49410;55.708;37.522;2022-07-24T05:19:41;10.85;;;4.53;;
63286;SDS011;49410;55.708;37.522;2022-07-24T05:22:07;10.13;;;4.80;;
63286;SDS011;49410;55.708;37.522;2022-07-24T05:24:32;10.30;;;4.38;;
63286;SDS011;49410;55.708;37.522;2022-07-24T05:26:58;10.30;;;4.57;;
63286;SDS011;49410;55.708;37.522;2022-07-24T05:29:23;6.97;;;4.15;;
63286;SDS011;49410;55.708;37.522;2022-07-24T05:31:49;11.95;;;4.65;;
63286;SDS011;49410;55.708;37.522;2022-07-24T05:34:16;8.35;;;3.85;;
63286;SDS011;49410;55.708;37.522;2022-07-24T05:36:42;9.18;;;4.28;;
63286;SDS011;49410;55.708;37.522;2022-07-24T05:39:08;9.75;;;4.57;;
63286;SDS011;49410;55.708;37.522;2022-07-24T05:41:33;9.23;;;4.45;;
63286;SDS011;49410;55.708;37.522;2022-07-24T05:43:59;10.73;;;4.55;;
63286;SDS011;49410;55.708;37.522;2022-07-24T05:46:24;12.13;;;4.80;;
63286;SDS011;49410;55.708;37.522;2022-07-24T05:48:50;8.93;;;4.70;;
63286;SDS011;49410;55.708;37.522;2022-07-24T05:51:15;7.78;;;4.22;;
63286;SDS011;49410;55.708;37.522;2022-07-24T05:53:41;7.28;;;3.92;;
63286;SDS011;49410;55.708;37.522;2022-07-24T05:56:06;10.48;;;4.20;;
63286;SDS011;49410;55.708;37.522;2022-07-24T05:58:32;10.77;;;4.53;;
63286;SDS011;49410;55.708;37.522;2022-07-24T06:00:57;15.15;;;4.35;;
63286;SDS011;49410;55.708;37.522;2022-07-24T06:03:23;12.55;;;5.30;;
63286;SDS011;49410;55.708;37.522;2022-07-24T06:05:48;12.27;;;4.43;;
63286;SDS011;49410;55.708;37.522;2022-07-24T06:08:14;11.52;;;4.68;;
63286;SDS011;49410;55.708;37.522;2022-07-24T06:10:40;10.80;;;4.10;;
63286;SDS011;49410;55.708;37.522;2022-07-24T06:13:05;8.25;;;4.45;;
63286;SDS011;49410;55.708;37.522;2022-07-24T06:15:31;7.95;;;3.90;;
63286;SDS011;49410;55.708;37.522;2022-07-24T06:17:56;8.40;;;3.72;;
63286;SDS011;49410;55.708;37.522;2022-07-24T06:20:22;7.97;;;3.55;;
63286;SDS011;49410;55.708;37.522;2022-07-24T06:22:48;6.80;;;3.72;;
63286;SDS011;49410;55.708;37.522;2022-07-24T06:25:13;13.57;;;4.78;;
63286;SDS011;49410;55.708;37.522;2022-07-24T06:27:43;8.18;;;4.25;;
63286;SDS011;49410;55.708;37.522;2022-07-24T06:30:14;11.23;;;4.07;;
63286;SDS011;49410;55.708;37.522;2022-07-24T06:35:06;11.20;;;4.10;;
63286;SDS011;49410;55.708;37.522;2022-07-24T06:37:32;12.52;;;3.92;;
63286;SDS011;49410;55.708;37.522;2022-07-24T06:39:57;6.85;;;3.50;;
63286;SDS011;49410;55.708;37.522;2022-07-24T06:42:23;6.75;;;3.05;;
63286;SDS011;49410;55.708;37.522;2022-07-24T06:44:49;5.38;;;2.92;;
63286;SDS011;49410;55.708;37.522;2022-07-24T06:47:14;5.88;;;3.65;;
63286;SDS011;49410;55.708;37.522;2022-07-24T06:49:40;6.95;;;3.40;;
63286;SDS011;49410;55.708;37.522;2022-07-24T06:52:05;6.07;;;3.17;;
63286;SDS011;49410;55.708;37.522;2022-07-24T06:54:31;6.03;;;2.90;;
63286;SDS011;49410;55.708;37.522;2022-07-24T06:56:56;5.47;;;3.15;;
63286;SDS011;49410;55.708;37.522;2022-07-24T06:59:22;6.10;;;3.45;;
63286;SDS011;49410;55.708;37.522;2022-07-24T07:01:47;6.85;;;3.25;;
63286;SDS011;49410;55.708;37.522;2022-07-24T07:04:13;7.38;;;3.33;;
63286;SDS011;49410;55.708;37.522;2022-07-24T07:06:38;6.50;;;3.22;;
63286;SDS011;49410;55.708;37.522;2022-07-24T07:09:04;5.82;;;3.38;;
63286;SDS011;49410;55.708;37.522;2022-07-24T07:11:29;7.20;;;3.72;;
63286;SDS011;49410;55.708;37.522;2022-07-24T07:13:55;5.78;;;3.25;;
63286;SDS011;49410;55.708;37.522;2022-07-24T07:16:20;6.75;;;3.25;;
63286;SDS011;49410;55.708;37.522;2022-07-24T07:18:46;6.25;;;3.47;;
63286;SDS011;49410;55.708;37.522;2022-07-24T07:21:11;8.52;;;3.60;;
63286;SDS011;49410;55.708;37.522;2022-07-24T07:23:37;8.77;;;3.50;;
63286;SDS011;49410;55.708;37.522;2022-07-24T07:26:03;5.60;;;3.38;;
63286;SDS011;49410;55.708;37.522;2022-07-24T07:28:28;6.80;;;4.05;;
63286;SDS011;49410;55.708;37.522;2022-07-24T07:30:54;9.05;;;3.83;;
63286;SDS011;49410;55.708;37.522;2022-07-24T07:33:19;6.80;;;3.60;;
63286;SDS011;49410;55.708;37.522;2022-07-24T07:35:45;8.88;;;3.53;;
63286;SDS011;49410;55.708;37.522;2022-07-24T07:38:11;7.07;;;3.53;;
63286;SDS011;49410;55.708;37.522;2022-07-24T07:40:36;6.90;;;3.92;;
63286;SDS011;49410;55.708;37.522;2022-07-24T07:43:02;6.70;;;3.40;;
63286;SDS011;49410;55.708;37.522;2022-07-24T07:45:27;9.25;;;3.78;;
63286;SDS011;49410;55.708;37.522;2022-07-24T07:47:53;6.70;;;3.40;;
63286;SDS011;49410;55.708;37.522;2022-07-24T07:50:18;6.55;;;3.75;;
63286;SDS011;49410;55.708;37.522;2022-07-24T07:52:44;7.00;;;3.80;;
63286;SDS011;49410;55.708;37.522;2022-07-24T07:55:10;6.68;;;3.75;;
63286;SDS011;49410;55.708;37.522;2022-07-24T07:57:35;7.10;;;3.97;;
63286;SDS011;49410;55.708;37.522;2022-07-24T08:00:02;7.07;;;4.05;;
63286;SDS011;49410;55.708;37.522;2022-07-24T08:02:28;10.55;;;3.88;;
63286;SDS011;49410;55.708;37.522;2022-07-24T08:04:54;7.28;;;4.05;;
63286;SDS011;49410;55.708;37.522;2022-07-24T08:07:20;7.32;;;3.97;;
63286;SDS011;49410;55.708;37.522;2022-07-24T08:09:45;6.25;;;4.05;;
63286;SDS011;49410;55.708;37.522;2022-07-24T08:12:11;14.45;;;4.20;;
63286;SDS011;49410;55.708;37.522;2022-07-24T08:14:36;6.22;;;3.63;;
63286;SDS011;49410;55.708;37.522;2022-07-24T08:17:02;7.70;;;3.90;;
63286;SDS011;49410;55.708;37.522;2022-07-24T08:19:28;5.60;;;3.67;;
63286;SDS011;49410;55.708;37.522;2022-07-24T08:21:53;6.22;;;3.63;;
63286;SDS011;49410;55.708;37.522;2022-07-24T08:24:19;7.25;;;3.67;;
63286;SDS011;49410;55.708;37.522;2022-07-24T08:26:48;5.75;;;3.78;;
63286;SDS011;49410;55.708;37.522;2022-07-24T08:29:14;6.40;;;3.90;;
63286;SDS011;49410;55.708;37.522;2022-07-24T08:31:40;6.15;;;3.33;;
63286;SDS011;49410;55.708;37.522;2022-07-24T08:34:06;6.53;;;3.47;;
63286;SDS011;49410;55.708;37.522;2022-07-24T08:36:31;8.25;;;4.10;;
63286;SDS011;49410;55.708;37.522;2022-07-24T08:38:57;6.25;;;3.90;;
63286;SDS011;49410;55.708;37.522;2022-07-24T08:41:22;5.43;;;3.53;;
63286;SDS011;49410;55.708;37.522;2022-07-24T08:43:48;6.78;;;3.97;;
63286;SDS011;49410;55.708;37.522;2022-07-24T08:46:14;7.55;;;3.63;;
63286;SDS011;49410;55.708;37.522;2022-07-24T08:48:44;7.03;;;3.78;;
63286;SDS011;49410;55.708;37.522;2022-07-24T08:51:12;6.50;;;3.90;;
63286;SDS011;49410;55.708;37.522;2022-07-24T08:53:41;5.60;;;3.53;;
63286;SDS011;49410;55.708;37.522;2022-07-24T08:56:09;5.60;;;3.60;;
63286;SDS011;49410;55.708;37.522;2022-07-24T08:58:36;6.57;;;3.78;;
63286;SDS011;49410;55.708;37.522;2022-07-24T09:01:03;6.68;;;3.88;;
63286;SDS011;49410;55.708;37.522;2022-07-24T09:03:37;6.15;;;3.58;;
63286;SDS011;49410;55.708;37.522;2022-07-24T09:06:04;7.30;;;3.80;;
63286;SDS011;49410;55.708;37.522;2022-07-24T09:08:34;8.07;;;3.72;;
63286;SDS011;49410;55.708;37.522;2022-07-24T09:11:01;6.00;;;3.80;;
63286;SDS011;49410;55.708;37.522;2022-07-24T09:13:28;7.78;;;4.20;;
63286;SDS011;49410;55.708;37.522;2022-07-24T09:16:18;9.40;;;3.78;;
63286;SDS011;49410;55.708;37.522;2022-07-24T09:19:02;6.95;;;4.05;;
63286;SDS011;49410;55.708;37.522;2022-07-24T09:21:36;5.57;;;3.50;;
63286;SDS011;49410;55.708;37.522;2022-07-24T09:24:16;5.97;;;3.88;;
63286;SDS011;49410;55.708;37.522;2022-07-24T09:29:12;7.55;;;4.03;;
63286;SDS011;49410;55.708;37.522;2022-07-24T09:34:17;6.85;;;4.38;;
63286;SDS011;49410;55.708;37.522;2022-07-24T09:36:54;6.22;;;3.97;;
63286;SDS011;49410;55.708;37.522;2022-07-24T09:39:26;7.55;;;3.78;;
63286;SDS011;49410;55.708;37.522;2022-07-24T09:41:54;8.10;;;4.00;;
63286;SDS011;49410;55.708;37.522;2022-07-24T09:44:21;6.82;;;3.80;;
63286;SDS011;49410;55.708;37.522;2022-07-24T09:46:54;6.13;;;3.88;;
63286;SDS011;49410;55.708;37.522;2022-07-24T09:49:22;6.60;;;3.85;;
63286;SDS011;49410;55.708;37.522;2022-07-24T09:54:33;5.88;;;3.88;;
63286;SDS011;49410;55.708;37.522;2022-07-24T09:59:53;7.63;;;4.00;;
63286;SDS011;49410;55.708;37.522;2022-07-24T10:02:21;9.45;;;3.70;;
63286;SDS011;49410;55.708;37.522;2022-07-24T10:04:49;8.35;;;3.50;;
63286;SDS011;49410;55.708;37.522;2022-07-24T10:07:19;7.20;;;3.90;;
63286;SDS011;49410;55.708;37.522;2022-07-24T10:12:15;7.22;;;4.07;;
63286;SDS011;49410;55.708;37.522;2022-07-24T10:14:43;9.02;;;4.15;;
63286;SDS011;49410;55.708;37.522;2022-07-24T10:17:11;7.32;;;4.22;;
63286;SDS011;49410;55.708;37.522;2022-07-24T10:19:38;7.13;;;3.97;;
63286;SDS011;49410;55.708;37.522;2022-07-24T10:22:11;6.60;;;3.88;;
63286;SDS011;49410;55.708;37.522;2022-07-24T10:27:15;8.50;;;4.00;;
63286;SDS011;49410;55.708;37.522;2022-07-24T10:29:46;7.00;;;4.00;;
63286;SDS011;49410;55.708;37.522;2022-07-24T10:32:13;5.60;;;3.85;;
63286;SDS011;49410;55.708;37.522;2022-07-24T10:34:46;6.90;;;3.65;;
63286;SDS011;49410;55.708;37.522;2022-07-24T10:45:38;5.75;;;3.95;;
63286;SDS011;49410;55.708;37.522;2022-07-24T10:59:05;6.25;;;3.72;;
63286;SDS011;49410;55.708;37.522;2022-07-24T11:06:44;6.50;;;3.72;;
63286;SDS011;49410;55.708;37.522;2022-07-24T11:09:12;7.18;;;3.78;;
63286;SDS011;49410;55.708;37.522;2022-07-24T11:11:42;8.32;;;3.92;;
63286;SDS011;49410;55.708;37.522;2022-07-24T11:20:07;6.60;;;4.10;;
63286;SDS011;49410;55.708;37.522;2022-07-24T11:22:41;7.80;;;3.70;;
63286;SDS011;49410;55.708;37.522;2022-07-24T11:25:25;7.57;;;3.80;;
63286;SDS011;49410;55.708;37.522;2022-07-24T11:28:04;7.47;;;3.58;;
63286;SDS011;49410;55.708;37.522;2022-07-24T11:30:44;6.97;;;3.55;;
63286;SDS011;49410;55.708;37.522;2022-07-24T11:33:11;7.65;;;4.03;;
63286;SDS011;49410;55.708;37.522;2022-07-24T11:35:42;7.93;;;4.00;;
63286;SDS011;49410;55.708;37.522;2022-07-24T11:38:07;6.40;;;4.20;;
63286;SDS011;49410;55.708;37.522;2022-07-24T11:40:33;6.95;;;4.20;;
63286;SDS011;49410;55.708;37.522;2022-07-24T11:43:01;6.63;;;4.20;;
63286;SDS011;49410;55.708;37.522;2022-07-24T11:45:31;11.50;;;4.22;;
63286;SDS011;49410;55.708;37.522;2022-07-24T11:47:57;6.60;;;4.00;;
63286;SDS011;49410;55.708;37.522;2022-07-24T11:50:24;6.82;;;4.07;;
63286;SDS011;49410;55.708;37.522;2022-07-24T11:52:52;7.18;;;4.45;;
63286;SDS011;49410;55.708;37.522;2022-07-24T11:55:19;7.95;;;4.70;;
63286;SDS011;49410;55.708;37.522;2022-07-24T11:57:50;6.88;;;4.40;;
63286;SDS011;49410;55.708;37.522;2022-07-24T12:00:19;7.32;;;4.28;;
63286;SDS011;49410;55.708;37.522;2022-07-24T12:02:50;7.20;;;4.03;;
63286;SDS011;49410;55.708;37.522;2022-07-24T12:05:24;8.00;;;3.78;;
63286;SDS011;49410;55.708;37.522;2022-07-24T12:07:52;6.43;;;4.03;;
63286;SDS011;49410;55.708;37.522;2022-07-24T12:10:18;6.43;;;4.10;;
63286;SDS011;49410;55.708;37.522;2022-07-24T12:12:46;6.55;;;3.72;;
63286;SDS011;49410;55.708;37.522;2022-07-24T12:15:18;6.25;;;4.20;;
63286;SDS011;49410;55.708;37.522;2022-07-24T12:18:05;7.30;;;3.63;;
63286;SDS011;49410;55.708;37.522;2022-07-24T12:22:59;7.70;;;3.58;;
63286;SDS011;49410;55.708;37.522;2022-07-24T12:25:26;6.03;;;3.63;;
63286;SDS011;49410;55.708;37.522;2022-07-24T12:28:04;7.22;;;3.95;;
63286;SDS011;49410;55.708;37.522;2022-07-24T12:30:33;7.45;;;4.15;;
63286;SDS011;49410;55.708;37.522;2022-07-24T12:35:32;7.15;;;4.07;;
63286;SDS011;49410;55.708;37.522;2022-07-24T12:38:00;7.32;;;3.95;;
63286;SDS011;49410;55.708;37.522;2022-07-24T12:40:35;5.88;;;3.63;;
63286;SDS011;49410;55.708;37.522;2022-07-24T12:43:02;8.25;;;3.90;;
63286;SDS011;49410;55.708;37.522;2022-07-24T12:45:29;7.88;;;4.18;;
63286;SDS011;49410;55.708;37.522;2022-07-24T12:48:05;7.50;;;3.78;;
63286;SDS011;49410;55.708;37.522;2022-07-24T12:50:32;7.22;;;3.92;;
63286;SDS011;49410;55.708;37.522;2022-07-24T12:53:07;6.80;;;4.18;;
63286;SDS011;49410;55.708;37.522;2022-07-24T12:55:34;7.43;;;3.83;;
63286;SDS011;49410;55.708;37.522;2022-07-24T12:58:01;6.32;;;3.90;;
63286;SDS011;49410;55.708;37.522;2022-07-24T13:00:29;6.07;;;3.72;;
63286;SDS011;49410;55.708;37.522;2022-07-24T13:02:55;8.35;;;3.80;;
63286;SDS011;49410;55.708;37.522;2022-07-24T13:05:40;7.28;;;3.75;;
63286;SDS011;49410;55.708;37.522;2022-07-24T13:08:10;6.45;;;3.78;;
63286;SDS011;49410;55.708;37.522;2022-07-24T13:10:35;6.38;;;3.47;;
63286;SDS011;49410;55.708;37.522;2022-07-24T13:13:02;5.78;;;3.42;;
63286;SDS011;49410;55.708;37.522;2022-07-24T13:15:28;5.75;;;3.42;;
63286;SDS011;49410;55.708;37.522;2022-07-24T13:17:53;6.38;;;3.72;;
63286;SDS011;49410;55.708;37.522;2022-07-24T13:20:19;6.82;;;4.35;;
63286;SDS011;49410;55.708;37.522;2022-07-24T13:22:45;7.15;;;4.28;;
63286;SDS011;49410;55.708;37.522;2022-07-24T13:25:10;6.57;;;3.78;;
63286;SDS011;49410;55.708;37.522;2022-07-24T13:27:36;6.22;;;4.05;;
63286;SDS011;49410;55.708;37.522;2022-07-24T13:30:02;7.25;;;3.92;;
63286;SDS011;49410;55.708;37.522;2022-07-24T13:32:28;9.60;;;3.92;;
63286;SDS011;49410;55.708;37.522;2022-07-24T13:34:54;8.02;;;4.07;;
63286;SDS011;49410;55.708;37.522;2022-07-24T13:37:19;6.00;;;3.72;;
63286;SDS011;49410;55.708;37.522;2022-07-24T13:39:45;6.82;;;3.88;;
63286;SDS011;49410;55.708;37.522;2022-07-24T13:42:10;7.68;;;3.97;;
63286;SDS011;49410;55.708;37.522;2022-07-24T13:44:36;7.20;;;3.78;;
63286;SDS011;49410;55.708;37.522;2022-07-24T13:47:02;7.22;;;3.95;;
63286;SDS011;49410;55.708;37.522;2022-07-24T13:49:27;6.30;;;3.80;;
63286;SDS011;49410;55.708;37.522;2022-07-24T13:51:53;7.93;;;4.15;;
63286;SDS011;49410;55.708;37.522;2022-07-24T13:54:19;6.65;;;4.13;;
63286;SDS011;49410;55.708;37.522;2022-07-24T13:56:44;7.03;;;3.78;;
63286;SDS011;49410;55.708;37.522;2022-07-24T13:59:10;7.10;;;3.78;;
63286;SDS011;49410;55.708;37.522;2022-07-24T14:01:36;7.40;;;3.70;;
63286;SDS011;49410;55.708;37.522;2022-07-24T14:04:03;6.60;;;4.15;;
63286;SDS011;49410;55.708;37.522;2022-07-24T14:06:31;7.93;;;4.28;;
63286;SDS011;49410;55.708;37.522;2022-07-24T14:08:57;7.32;;;3.90;;
63286;SDS011;49410;55.708;37.522;2022-07-24T14:11:22;6.60;;;3.50;;
63286;SDS011;49410;55.708;37.522;2022-07-24T14:13:48;7.72;;;4.35;;
63286;SDS011;49410;55.708;37.522;2022-07-24T14:16:14;6.75;;;3.53;;
63286;SDS011;49410;55.708;37.522;2022-07-24T14:18:39;7.47;;;4.15;;
63286;SDS011;49410;55.708;37.522;2022-07-24T14:21:05;6.65;;;3.75;;
63286;SDS011;49410;55.708;37.522;2022-07-24T14:23:30;6.07;;;3.70;;
63286;SDS011;49410;55.708;37.522;2022-07-24T14:25:56;7.13;;;3.50;;
63286;SDS011;49410;55.708;37.522;2022-07-24T14:28:22;7.78;;;3.75;;
63286;SDS011;49410;55.708;37.522;2022-07-24T14:30:47;7.32;;;3.80;;
63286;SDS011;49410;55.708;37.522;2022-07-24T14:33:13;6.13;;;3.95;;
63286;SDS011;49410;55.708;37.522;2022-07-24T14:35:38;7.32;;;4.38;;
63286;SDS011;49410;55.708;37.522;2022-07-24T14:38:04;8.20;;;4.88;;
63286;SDS011;49410;55.708;37.522;2022-07-24T14:40:29;7.18;;;4.10;;
63286;SDS011;49410;55.708;37.522;2022-07-24T14:42:55;6.05;;;4.00;;
63286;SDS011;49410;55.708;37.522;2022-07-24T14:45:21;6.97;;;3.88;;
63286;SDS011;49410;55.708;37.522;2022-07-24T14:47:47;6.50;;;3.83;;
63286;SDS011;49410;55.708;37.522;2022-07-24T14:50:12;7.15;;;3.47;;
63286;SDS011;49410;55.708;37.522;2022-07-24T14:52:38;7.22;;;3.83;;
63286;SDS011;49410;55.708;37.522;2022-07-24T14:55:07;9.20;;;3.95;;
63286;SDS011;49410;55.708;37.522;2022-07-24T14:57:33;6.88;;;4.13;;
63286;SDS011;49410;55.708;37.522;2022-07-24T15:00:11;6.35;;;3.63;;
63286;SDS011;49410;55.708;37.522;2022-07-24T15:02:37;7.68;;;3.75;;
63286;SDS011;49410;55.708;37.522;2022-07-24T15:05:02;7.43;;;4.13;;
63286;SDS011;49410;55.708;37.522;2022-07-24T15:07:28;7.38;;;3.97;;
63286;SDS011;49410;55.708;37.522;2022-07-24T15:09:54;7.35;;;3.40;;
63286;SDS011;49410;55.708;37.522;2022-07-24T15:12:19;7.95;;;3.95;;
63286;SDS011;49410;55.708;37.522;2022-07-24T15:14:45;6.63;;;3.70;;
63286;SDS011;49410;55.708;37.522;2022-07-24T15:17:10;6.65;;;3.75;;
63286;SDS011;49410;55.708;37.522;2022-07-24T15:19:36;6.03;;;3.65;;
63286;SDS011;49410;55.708;37.522;2022-07-24T15:22:01;7.53;;;4.15;;